This is the latest recevied weather packets stored in our database for station/object N7BTW-13. If no packets are shown the sender has not sent any weather packets the latest 10 day(s).
| Time | Temp. | Humidity | Pressure | Rain* | Wind** | Luminosity | Snow |
|---|---|---|---|---|---|---|---|
| 1787542812 | 21.11° C | 67% | - | 0 mm | - | - | - |
| 1787542208 | 21.67° C | 65% | - | 0 mm | - | - | - |
| 1787541607 | 22.22° C | 62% | - | 0 mm | - | - | - |
| 1787541008 | 22.78° C | 61% | - | 0 mm | - | - | - |
| 1787540406 | 23.89° C | 58% | - | 0 mm | - | - | - |
| 1787539806 | 25° C | 55% | - | 0 mm | - | - | - |
| 1787539211 | 25.56° C | 54% | - | 0 mm | - | - | - |
| 1787538608 | 25° C | 56% | - | 0 mm | - | - | - |
| 1787538009 | 25.56° C | 55% | - | 0 mm | - | - | - |
| 1787537410 | 26.11° C | 54% | - | 0 mm | - | - | - |
| 1787536810 | 26.11° C | 53% | - | 0 mm | - | - | - |
| 1787536208 | 26.67° C | 53% | - | 0 mm | - | - | - |
| 1787535608 | 26.67° C | 52% | - | 0 mm | - | - | - |
| 1787535007 | 27.22° C | 51% | - | 0 mm | - | - | - |
| 1787534407 | 27.22° C | 51% | - | 0 mm | - | - | - |
| 1787533807 | 27.22° C | 50% | - | 0 mm | - | - | - |
| 1787533209 | 27.78° C | 49% | - | 0 mm | - | - | - |
| 1787532608 | 27.78° C | 50% | - | 0 mm | - | - | - |
| 1787532007 | 28.33° C | 49% | - | 0 mm | - | - | - |
| 1787531409 | 28.33° C | 48% | - | 0 mm | - | - | - |
| 1787530808 | 28.89° C | 48% | - | 0 mm | - | - | - |
| 1787530208 | 28.89° C | 47% | - | 0 mm | - | - | - |
| 1787529608 | 29.44° C | 46% | - | 0 mm | - | - | - |
| 1787529008 | 28.89° C | 47% | - | 0 mm | - | - | - |
| 1787528407 | 28.33° C | 48% | - | 0 mm | - | - | - |
* Rain latest hour (hover to see other rain measurements)
** Current wind speed in m/s (hover to see current wind gust speed)